Aviation Digital Data Service (ADDS)

Output produced by METARs form (1042 UTC 17 June 2019)
found at http://www.aviationweather.gov/metar/data/
 
METAR text: TNCB 170955Z AUTO 09017KT 9999 BKN001/// BKN016/// BKN021/// 28/24 Q1013
Conditions at: TNCB (BONAIRE/FLAMINGO, AN) observed 0955 UTC 17 June 2019
Temperature: 28.0°C (82°F)
Dewpoint: 24.0°C (75°F) [RH = 79%]
Pressure (altimeter): 29.91 inches Hg (1013.0 mb)
Winds: from the E (90 degrees) at 20 MPH (17 knots; 8.7 m/s)
Visibility: 6 or more miles (10+ km)
Ceiling: 100 feet AGL
Clouds: broken clouds at 100 feet AGL
broken clouds at 1600 feet AGL
broken clouds at 2100 feet AGL
Weather: no significant weather observed at this time

METAR text: TNCB 170855Z AUTO 09015KT 9999 OVC001/// 28/24 Q1013
Conditions at: TNCB (BONAIRE/FLAMINGO, AN) observed 0855 UTC 17 June 2019
Temperature: 28.0°C (82°F)
Dewpoint: 24.0°C (75°F) [RH = 79%]
Pressure (altimeter): 29.91 inches Hg (1013.0 mb)
Winds: from the E (90 degrees) at 17 MPH (15 knots; 7.7 m/s)
Visibility: 6 or more miles (10+ km)
Ceiling: 100 feet AGL
Clouds: overcast cloud deck at 100 feet AGL
Weather: no significant weather observed at this time

METAR text: TNCB 170755Z AUTO 09018KT 9999 OVC001/// 28/24 Q1012
Conditions at: TNCB (BONAIRE/FLAMINGO, AN) observed 0755 UTC 17 June 2019
Temperature: 28.0°C (82°F)
Dewpoint: 24.0°C (75°F) [RH = 79%]
Pressure (altimeter): 29.88 inches Hg (1012.0 mb)
Winds: from the E (90 degrees) at 21 MPH (18 knots; 9.3 m/s)
Visibility: 6 or more miles (10+ km)
Ceiling: 100 feet AGL
Clouds: overcast cloud deck at 100 feet AGL
Weather: no significant weather observed at this time

METAR text: TNCB 170655Z AUTO 09018KT 9999 OVC001/// 28/24 Q1012
Conditions at: TNCB (BONAIRE/FLAMINGO, AN) observed 0655 UTC 17 June 2019
Temperature: 28.0°C (82°F)
Dewpoint: 24.0°C (75°F) [RH = 79%]
Pressure (altimeter): 29.88 inches Hg (1012.0 mb)
Winds: from the E (90 degrees) at 21 MPH (18 knots; 9.3 m/s)
Visibility: 6 or more miles (10+ km)
Ceiling: 100 feet AGL
Clouds: overcast cloud deck at 100 feet AGL
Weather: no significant weather observed at this time

METAR text: TNCB 170555Z AUTO 09017KT 060V120 9999 BKN001/// OVC017/// 28/24 Q1013
Conditions at: TNCB (BONAIRE/FLAMINGO, AN) observed 0555 UTC 17 June 2019
Temperature: 28.0°C (82°F)
Dewpoint: 24.0°C (75°F) [RH = 79%]
Pressure (altimeter): 29.91 inches Hg (1013.0 mb)
Winds: from the E (90 degrees) at 20 MPH (17 knots; 8.7 m/s)
Visibility: 6 or more miles (10+ km)
Ceiling: 100 feet AGL
Clouds: broken clouds at 100 feet AGL
overcast cloud deck at 1700 feet AGL
Weather: no significant weather observed at this time

METAR text: TNCB 170455Z AUTO 09015KT 9999 OVC001/// 28/24 Q1014
Conditions at: TNCB (BONAIRE/FLAMINGO, AN) observed 0455 UTC 17 June 2019
Temperature: 28.0°C (82°F)
Dewpoint: 24.0°C (75°F) [RH = 79%]
Pressure (altimeter): 29.94 inches Hg (1014.0 mb)
Winds: from the E (90 degrees) at 17 MPH (15 knots; 7.7 m/s)
Visibility: 6 or more miles (10+ km)
Ceiling: 100 feet AGL
Clouds: overcast cloud deck at 100 feet AGL
Weather: no significant weather observed at this time

METAR text: TNCB 170355Z AUTO 09016KT 060V120 9999 BKN001/// OVC014/// 28/24 Q1015
Conditions at: TNCB (BONAIRE/FLAMINGO, AN) observed 0355 UTC 17 June 2019
Temperature: 28.0°C (82°F)
Dewpoint: 24.0°C (75°F) [RH = 79%]
Pressure (altimeter): 29.97 inches Hg (1015.0 mb)
Winds: from the E (90 degrees) at 18 MPH (16 knots; 8.2 m/s)
Visibility: 6 or more miles (10+ km)
Ceiling: 100 feet AGL
Clouds: broken clouds at 100 feet AGL
overcast cloud deck at 1400 feet AGL
Weather: no significant weather observed at this time

METAR text: TNCB 170255Z AUTO 09017KT 9999 OVC001/// 28/24 Q1015
Conditions at: TNCB (BONAIRE/FLAMINGO, AN) observed 0255 UTC 17 June 2019
Temperature: 28.0°C (82°F)
Dewpoint: 24.0°C (75°F) [RH = 79%]
Pressure (altimeter): 29.97 inches Hg (1015.0 mb)
Winds: from the E (90 degrees) at 20 MPH (17 knots; 8.7 m/s)
Visibility: 6 or more miles (10+ km)
Ceiling: 100 feet AGL
Clouds: overcast cloud deck at 100 feet AGL
Weather: no significant weather observed at this time

METAR text: TNCB 170155Z AUTO 09014KT 060V120 9999 BKN001/// 28/24 Q1014
Conditions at: TNCB (BONAIRE/FLAMINGO, AN) observed 0155 UTC 17 June 2019
Temperature: 28.0°C (82°F)
Dewpoint: 24.0°C (75°F) [RH = 79%]
Pressure (altimeter): 29.94 inches Hg (1014.0 mb)
Winds: from the E (90 degrees) at 16 MPH (14 knots; 7.2 m/s)
Visibility: 6 or more miles (10+ km)
Ceiling: 100 feet AGL
Clouds: broken clouds at 100 feet AGL
Weather: no significant weather observed at this time

METAR text: TNCB 170055Z AUTO 09018KT 9999 OVC001/// 28/24 Q1014
Conditions at: TNCB (BONAIRE/FLAMINGO, AN) observed 0055 UTC 17 June 2019
Temperature: 28.0°C (82°F)
Dewpoint: 24.0°C (75°F) [RH = 79%]
Pressure (altimeter): 29.94 inches Hg (1014.0 mb)
Winds: from the E (90 degrees) at 21 MPH (18 knots; 9.3 m/s)
Visibility: 6 or more miles (10+ km)
Ceiling: 100 feet AGL
Clouds: overcast cloud deck at 100 feet AGL
Weather: no significant weather observed at this time

METAR text: TNCB 162355Z 08019KT 050V110 CAVOK 28/24 Q1013
Conditions at: TNCB (BONAIRE/FLAMINGO, AN) observed 2355 UTC 16 June 2019
Temperature: 28.0°C (82°F)
Dewpoint: 24.0°C (75°F) [RH = 79%]
Pressure (altimeter): 29.91 inches Hg (1013.0 mb)
Winds: from the E (80 degrees) at 22 MPH (19 knots; 9.8 m/s)
Visibility: 6 or more miles (10+ km)
Ceiling: ceiling and visibility are OK
Clouds: unknown
Weather: no significant weather observed at this time

METAR text: TNCB 162255Z 09019KT 060V120 9999 SCT016 28/24 Q1012
Conditions at: TNCB (BONAIRE/FLAMINGO, AN) observed 2255 UTC 16 June 2019
Temperature: 28.0°C (82°F)
Dewpoint: 24.0°C (75°F) [RH = 79%]
Pressure (altimeter): 29.88 inches Hg (1012.0 mb)
Winds: from the E (90 degrees) at 22 MPH (19 knots; 9.8 m/s)
Visibility: 6 or more miles (10+ km)
Ceiling: at least 12,000 feet AGL
Clouds: scattered clouds at 1600 feet AGL
Weather: no significant weather observed at this time

METAR text: TNCB 162155Z 08019KT 050V110 9999 SCT017 29/25 Q1011
Conditions at: TNCB (BONAIRE/FLAMINGO, AN) observed 2155 UTC 16 June 2019
Temperature: 29.0°C (84°F)
Dewpoint: 25.0°C (77°F) [RH = 79%]
Pressure (altimeter): 29.85 inches Hg (1011.0 mb)
Winds: from the E (80 degrees) at 22 MPH (19 knots; 9.8 m/s)
Visibility: 6 or more miles (10+ km)
Ceiling: at least 12,000 feet AGL
Clouds: scattered clouds at 1700 feet AGL
Weather: no significant weather observed at this time

METAR text: TNCB 162055Z 09018KT 060V120 9999 SCT016 30/25 Q1011
Conditions at: TNCB (BONAIRE/FLAMINGO, AN) observed 2055 UTC 16 June 2019
Temperature: 30.0°C (86°F)
Dewpoint: 25.0°C (77°F) [RH = 75%]
Pressure (altimeter): 29.85 inches Hg (1011.0 mb)
Winds: from the E (90 degrees) at 21 MPH (18 knots; 9.3 m/s)
Visibility: 6 or more miles (10+ km)
Ceiling: at least 12,000 feet AGL
Clouds: scattered clouds at 1600 feet AGL
Weather: no significant weather observed at this time

METAR text: TNCB 161955Z 09018KT 060V130 9999 SCT017 31/24 Q1011
Conditions at: TNCB (BONAIRE/FLAMINGO, AN) observed 1955 UTC 16 June 2019
Temperature: 31.0°C (88°F)
Dewpoint: 24.0°C (75°F) [RH = 66%]
Pressure (altimeter): 29.85 inches Hg (1011.0 mb)
Winds: from the E (90 degrees) at 21 MPH (18 knots; 9.3 m/s)
Visibility: 6 or more miles (10+ km)
Ceiling: at least 12,000 feet AGL
Clouds: scattered clouds at 1700 feet AGL
Weather: no significant weather observed at this time

METAR text: TNCB 161855Z 09020KT 060V140 9999 SCT020 31/24 Q1012
Conditions at: TNCB (BONAIRE/FLAMINGO, AN) observed 1855 UTC 16 June 2019
Temperature: 31.0°C (88°F)
Dewpoint: 24.0°C (75°F) [RH = 66%]
Pressure (altimeter): 29.88 inches Hg (1012.0 mb)
Winds: from the E (90 degrees) at 23 MPH (20 knots; 10.3 m/s)
Visibility: 6 or more miles (10+ km)
Ceiling: at least 12,000 feet AGL
Clouds: scattered clouds at 2000 feet AGL
Weather: no significant weather observed at this time

METAR text: TNCB 161755Z 10018KT 070V140 9999 SCT020 31/24 Q1013
Conditions at: TNCB (BONAIRE/FLAMINGO, AN) observed 1755 UTC 16 June 2019
Temperature: 31.0°C (88°F)
Dewpoint: 24.0°C (75°F) [RH = 66%]
Pressure (altimeter): 29.91 inches Hg (1013.0 mb)
Winds: from the E (100 degrees) at 21 MPH (18 knots; 9.3 m/s)
Visibility: 6 or more miles (10+ km)
Ceiling: at least 12,000 feet AGL
Clouds: scattered clouds at 2000 feet AGL
Weather: no significant weather observed at this time

METAR text: TNCB 161655Z 10017KT 070V150 9999 BKN017 32/25 Q1014
Conditions at: TNCB (BONAIRE/FLAMINGO, AN) observed 1655 UTC 16 June 2019
Temperature: 32.0°C (90°F)
Dewpoint: 25.0°C (77°F) [RH = 67%]
Pressure (altimeter): 29.94 inches Hg (1014.0 mb)
Winds: from the E (100 degrees) at 20 MPH (17 knots; 8.7 m/s)
Visibility: 6 or more miles (10+ km)
Ceiling: 1700 feet AGL
Clouds: broken clouds at 1700 feet AGL
Weather: no significant weather observed at this time

METAR text: TNCB 161555Z 10019KT 070V130 9999 BKN017 32/25 Q1014
Conditions at: TNCB (BONAIRE/FLAMINGO, AN) observed 1555 UTC 16 June 2019
Temperature: 32.0°C (90°F)
Dewpoint: 25.0°C (77°F) [RH = 67%]
Pressure (altimeter): 29.94 inches Hg (1014.0 mb)
Winds: from the E (100 degrees) at 22 MPH (19 knots; 9.8 m/s)
Visibility: 6 or more miles (10+ km)
Ceiling: 1700 feet AGL
Clouds: broken clouds at 1700 feet AGL
Weather: no significant weather observed at this time

METAR text: TNCB 161455Z AUTO 10019KT 070V140 9999 ///////// 31/24 Q1014
Conditions at: TNCB (BONAIRE/FLAMINGO, AN) observed 1455 UTC 16 June 2019
Temperature: 31.0°C (88°F)
Dewpoint: 24.0°C (75°F) [RH = 66%]
Pressure (altimeter): 29.94 inches Hg (1014.0 mb)
Winds: from the E (100 degrees) at 22 MPH (19 knots; 9.8 m/s)
Visibility: 6 or more miles (10+ km)
Ceiling: unknown
Clouds: missing
Weather: no significant weather observed at this time

METAR text: TNCB 161355Z 10016KT 060V130 9999 SCT013 BKN016 BKN020 30/26 Q1014
Conditions at: TNCB (BONAIRE/FLAMINGO, AN) observed 1355 UTC 16 June 2019
Temperature: 30.0°C (86°F)
Dewpoint: 26.0°C (79°F) [RH = 79%]
Pressure (altimeter): 29.94 inches Hg (1014.0 mb)
Winds: from the E (100 degrees) at 18 MPH (16 knots; 8.2 m/s)
Visibility: 6 or more miles (10+ km)
Ceiling: 1600 feet AGL
Clouds: scattered clouds at 1300 feet AGL
broken clouds at 1600 feet AGL
broken clouds at 2000 feet AGL
Weather: no significant weather observed at this time

METAR text: TNCB 161255Z 10017KT 070V130 9999 BKN015 29/25 Q1014
Conditions at: TNCB (BONAIRE/FLAMINGO, AN) observed 1255 UTC 16 June 2019
Temperature: 29.0°C (84°F)
Dewpoint: 25.0°C (77°F) [RH = 79%]
Pressure (altimeter): 29.94 inches Hg (1014.0 mb)
Winds: from the E (100 degrees) at 20 MPH (17 knots; 8.7 m/s)
Visibility: 6 or more miles (10+ km)
Ceiling: 1500 feet AGL
Clouds: broken clouds at 1500 feet AGL
Weather: no significant weather observed at this time

METAR text: TNCB 152255Z 08013KT 9999 SCT015 28/25 Q1012
Conditions at: TNCB (BONAIRE/FLAMINGO, AN) observed 2255 UTC 15 June 2019
Temperature: 28.0°C (82°F)
Dewpoint: 25.0°C (77°F) [RH = 84%]
Pressure (altimeter): 29.88 inches Hg (1012.0 mb)
Winds: from the E (80 degrees) at 15 MPH (13 knots; 6.7 m/s)
Visibility: 6 or more miles (10+ km)
Ceiling: at least 12,000 feet AGL
Clouds: scattered clouds at 1500 feet AGL
Weather: no significant weather observed at this time

Forecast for: TNCB (BONAIRE/FLAMINGO, AN)
Text: TAF TNCB 170431Z 1706/1812 09017KT 9999 SCT018
Forecast period: 0600 UTC 17 June 2019 to 1200 UTC 18 June 2019
Forecast type: FROM: standard forecast or significant change
Winds: from the E (90 degrees) at 20 MPH (17 knots; 8.7 m/s)
Visibility: 6 or more miles 10+ km)
Ceiling: at least 12,000 feet AGL
Clouds: scattered clouds at 1800 feet AGL
Weather: no significant weather forecast for this period
Text: TEMPO 1803/1812 6000 SHRA SCT015CB
Forecast period: 0300 to 1200 UTC 18 June 2019
Forecast type: TEMPORARY: The following changes expected for less than half the time period
Visibility: 4 miles (6 km)
Ceiling: at least 12,000 feet AGL
Clouds: scattered clouds at 1500 feet AGL
Weather: SHRA  (rain showers)